Time;durP1;ratioP1;P1;durP2;ratioP2;P2;SDS_P1;SDS_P2;PMS_P1;PMS_P2;Temp;Humidity;BMP_temperature;BMP_pressure;BME280_temperature;BME280_humidity;BME280_pressure;Samples;Min_cycle;Max_cycle;Signal;HPM_P1;HPM_P2
2021/07/28 00:00:35;;;;;;;;;9.25;7.25;;;;;24.88;53.09;100806.75;4995306;28;51151;-58
2021/07/28 00:03:00;;;;;;;;;7.00;5.75;;;;;24.87;53.13;100802.31;4995060;28;51081;-58
2021/07/28 00:05:26;;;;;;;;;6.00;6.00;;;;;24.86;53.02;100802.56;4994117;28;51856;-57
2021/07/28 00:07:52;;;;;;;;;4.25;4.25;;;;;24.86;52.94;100803.41;4994493;28;51417;-57
2021/07/28 00:10:17;;;;;;;;;6.25;5.75;;;;;24.83;52.75;100800.31;4995113;28;51182;-58
2021/07/28 00:12:42;;;;;;;;;5.50;5.00;;;;;24.85;52.79;100806.44;4995063;28;51297;-57
2021/07/28 00:15:08;;;;;;;;;6.25;5.75;;;;;24.84;52.86;100793.69;4994581;28;51246;-58
2021/07/28 00:17:37;;;;;;;;;4.75;4.75;;;;;24.83;52.70;100794.78;4995205;28;51307;-57
2021/07/28 00:20:07;;;;;;;;;7.00;5.75;;;;;24.82;52.81;100793.09;4994782;28;51223;-58
2021/07/28 00:25:21;;;;;;;;;6.75;5.25;;;;;24.80;52.66;100796.09;4995932;28;51259;-58
2021/07/28 00:27:46;;;;;;;;;6.25;6.00;;;;;24.81;53.09;100802.50;4997987;28;51156;-58
2021/07/28 00:30:12;;;;;;;;;5.25;4.75;;;;;24.79;52.67;100793.56;4998367;28;51171;-58
2021/07/28 00:32:37;;;;;;;;;4.75;4.75;;;;;24.77;52.52;100789.13;4998076;28;51093;-58
2021/07/28 00:35:03;;;;;;;;;5.50;4.25;;;;;24.76;52.67;100793.00;4997197;28;51808;-58
2021/07/28 00:37:29;;;;;;;;;4.75;4.00;;;;;24.76;52.44;100792.16;4997570;28;51589;-58
2021/07/28 00:39:54;;;;;;;;;6.50;5.00;;;;;24.74;52.30;100789.66;4998259;28;50971;-59
2021/07/28 00:42:19;;;;;;;;;8.00;5.00;;;;;24.73;52.31;100784.38;5002433;28;51108;-58
2021/07/28 00:44:45;;;;;;;;;5.75;5.00;;;;;24.71;51.78;100783.78;4997086;28;58273;-58
2021/07/28 00:47:11;;;;;;;;;8.25;6.25;;;;;24.69;51.87;100783.16;4996980;28;51185;-58
2021/07/28 00:49:37;;;;;;;;;6.00;5.00;;;;;24.68;52.22;100779.56;4996343;28;51355;-58
2021/07/28 00:52:04;;;;;;;;;5.00;5.00;;;;;24.68;51.57;100781.50;4997733;28;51448;-58
2021/07/28 00:54:30;;;;;;;;;5.00;4.00;;;;;24.67;51.55;100783.44;4997133;28;51259;-57
2021/07/28 00:56:56;;;;;;;;;7.25;5.75;;;;;24.66;51.62;100780.91;4999550;28;51106;-57
2021/07/28 00:59:21;;;;;;;;;4.25;4.00;;;;;24.66;51.89;100787.28;5006957;28;51147;-59
2021/07/28 01:01:47;;;;;;;;;5.25;3.50;;;;;24.66;51.66;100787.28;4997974;28;51230;-58
2021/07/28 01:04:13;;;;;;;;;3.50;2.50;;;;;24.65;51.88;100785.63;4996772;28;51817;-58
2021/07/28 01:06:38;;;;;;;;;3.25;3.25;;;;;24.65;51.42;100788.38;5001217;28;51167;-58
2021/07/28 01:09:03;;;;;;;;;4.00;3.00;;;;;24.64;51.37;100789.47;4997789;28;51082;-58
2021/07/28 01:11:29;;;;;;;;;5.00;5.00;;;;;24.62;51.45;100786.13;4997428;28;51564;-58
2021/07/28 01:13:57;;;;;;;;;4.00;4.00;;;;;24.61;51.25;100784.44;4996791;28;52554;-57
2021/07/28 01:16:25;;;;;;;;;4.25;3.50;;;;;24.60;51.24;100795.78;4997427;28;51286;-57
2021/07/28 01:18:51;;;;;;;;;3.00;3.00;;;;;24.58;51.46;100782.16;4995355;28;51103;-58
2021/07/28 01:21:19;;;;;;;;;4.75;4.00;;;;;24.57;51.38;100790.72;4996915;28;51062;-57
2021/07/28 01:23:46;;;;;;;;;4.75;4.75;;;;;24.56;51.43;100805.66;4997001;28;52223;-58
2021/07/28 01:26:14;;;;;;;;;4.75;4.00;;;;;24.55;51.21;100806.75;4997465;28;51316;-58
2021/07/28 01:28:40;;;;;;;;;2.50;2.50;;;;;24.54;51.40;100799.53;5000903;28;51170;-58
2021/07/28 01:31:11;;;;;;;;;4.50;3.25;;;;;24.52;51.20;100797.03;4997190;28;50974;-58
2021/07/28 01:33:42;;;;;;;;;4.50;2.00;;;;;24.50;51.21;100799.22;4996539;28;51280;-58
2021/07/28 01:36:21;;;;;;;;;4.00;4.00;;;;;24.48;51.26;100791.13;4996175;28;51133;-58
2021/07/28 01:38:48;;;;;;;;;4.75;3.00;;;;;24.47;51.24;100789.47;4997117;28;52224;-58
2021/07/28 01:41:13;;;;;;;;;4.75;3.25;;;;;24.46;51.38;100795.25;4997280;28;51206;-58
2021/07/28 01:43:40;;;;;;;;;5.00;4.00;;;;;24.44;51.25;100800.19;4996397;28;51731;-58
2021/07/28 01:46:06;;;;;;;;;4.00;3.75;;;;;24.43;51.23;100804.06;4996699;28;51012;-57
2021/07/28 01:48:32;;;;;;;;;5.00;4.25;;;;;24.41;51.37;100798.78;4996279;28;51194;-58
2021/07/28 01:50:58;;;;;;;;;3.00;3.00;;;;;24.42;50.96;100805.16;4996601;28;51028;-58
2021/07/28 01:53:24;;;;;;;;;3.00;3.00;;;;;24.40;50.72;100799.03;4996888;28;51539;-58
2021/07/28 01:55:53;;;;;;;;;1.50;1.50;;;;;24.40;51.17;100807.34;4996546;28;51106;-58
2021/07/28 01:58:19;;;;;;;;;5.00;3.00;;;;;24.38;50.73;100813.09;4996847;28;51193;-58
2021/07/28 02:00:45;;;;;;;;;4.00;3.00;;;;;24.36;50.92;100811.69;4996431;28;51123;-58
2021/07/28 02:03:10;;;;;;;;;4.00;3.00;;;;;24.36;50.83;100808.91;4996601;28;51999;-58
2021/07/28 02:05:38;;;;;;;;;3.00;3.00;;;;;24.35;51.20;100807.22;4996126;28;51280;-58
2021/07/28 02:08:06;;;;;;;;;2.25;2.25;;;;;24.34;50.95;100813.88;4996706;28;51051;-58
2021/07/28 02:10:36;;;;;;;;;4.00;2.75;;;;;24.33;50.81;100817.72;4997122;28;51249;-58
2021/07/28 02:13:02;;;;;;;;;4.50;3.00;;;;;24.32;50.50;100818.81;4996211;28;51797;-58
2021/07/28 02:15:28;;;;;;;;;2.75;2.75;;;;;24.31;50.55;100814.38;4996588;28;51184;-58
2021/07/28 02:17:54;;;;;;;;;2.00;1.25;;;;;24.29;50.49;100817.34;4996644;28;51102;-58
2021/07/28 02:20:20;;;;;;;;;2.00;2.00;;;;;24.28;50.55;100814.81;4996501;28;51353;-58
2021/07/28 02:22:46;;;;;;;;;2.00;1.50;;;;;24.28;50.51;100820.34;4995968;28;51700;-58
2021/07/28 02:25:13;;;;;;;;;3.00;1.50;;;;;24.26;50.29;100825.28;4996686;28;51102;-58
2021/07/28 02:27:38;;;;;;;;;3.00;3.00;;;;;24.25;50.43;100815.31;4996565;28;51146;-58
2021/07/28 02:30:05;;;;;;;;;2.75;2.75;;;;;24.24;50.43;100816.41;4996412;28;51098;-58
2021/07/28 02:32:31;;;;;;;;;4.00;3.00;;;;;24.23;50.46;100820.28;4995856;28;51052;-57
2021/07/28 02:34:56;;;;;;;;;2.50;2.00;;;;;24.22;50.06;100816.66;4995244;28;51405;-58
2021/07/28 02:37:21;;;;;;;;;2.25;2.00;;;;;24.21;50.18;100817.75;5000636;28;52406;-58
2021/07/28 02:39:46;;;;;;;;;3.50;3.50;;;;;24.19;50.14;100815.25;4996519;28;51111;-58
2021/07/28 02:42:12;;;;;;;;;3.00;3.00;;;;;24.18;50.17;100819.09;4995702;28;51003;-58
2021/07/28 02:44:37;;;;;;;;;2.00;2.00;;;;;24.15;50.11;100814.03;4996244;28;50982;-58
2021/07/28 02:47:02;;;;;;;;;5.25;1.00;;;;;24.15;50.11;100805.72;4995883;28;51230;-58
2021/07/28 02:49:28;;;;;;;;;3.50;2.00;;;;;24.15;49.75;100816.81;4994882;28;51324;-58
2021/07/28 02:51:53;;;;;;;;;1.25;1.25;;;;;24.14;49.80;100817.88;4995508;28;54236;-58
2021/07/28 02:54:21;;;;;;;;;2.00;2.00;;;;;24.12;49.62;100813.69;4995787;28;51083;-58
2021/07/28 02:56:47;;;;;;;;;1.50;1.50;;;;;24.10;49.93;100816.72;4996039;28;51023;-58
2021/07/28 02:59:12;;;;;;;;;2.50;2.50;;;;;24.09;49.73;100812.28;4995552;28;51002;-58
2021/07/28 03:01:37;;;;;;;;;3.00;3.00;;;;;24.08;49.89;100824.44;4995066;28;65549;-57
2021/07/28 03:04:03;;;;;;;;;5.50;2.25;;;;;24.08;49.59;100815.28;4994460;28;56867;-58
2021/07/28 03:06:28;;;;;;;;;2.00;2.00;;;;;24.06;49.64;100829.34;4995626;28;51609;-58
2021/07/28 03:08:53;;;;;;;;;2.75;2.75;;;;;24.05;49.61;100830.44;4996287;28;51205;-57
2021/07/28 03:11:19;;;;;;;;;3.00;2.50;;;;;24.03;49.68;100832.63;4995396;28;51781;-57
2021/07/28 03:13:44;;;;;;;;;5.00;3.25;;;;;24.04;49.68;100828.75;4995085;28;50984;-58
2021/07/28 03:16:09;;;;;;;;;4.00;3.25;;;;;24.03;50.05;100831.78;4994205;28;51348;-58
2021/07/28 03:18:35;;;;;;;;;3.00;3.00;;;;;24.01;49.73;100826.50;4995961;28;51345;-58
2021/07/28 03:21:00;;;;;;;;;1.25;1.25;;;;;24.00;49.71;100826.75;4995472;28;51641;-58
2021/07/28 03:23:26;;;;;;;;;2.75;2.75;;;;;23.99;49.64;100833.38;4995239;28;51536;-58
2021/07/28 03:25:51;;;;;;;;;2.50;2.50;;;;;23.98;49.79;100835.28;4995743;28;51058;-58
2021/07/28 03:28:16;;;;;;;;;2.00;2.00;;;;;23.97;49.52;100833.63;4995372;28;51135;-58
2021/07/28 03:30:42;;;;;;;;;1.00;1.00;;;;;23.94;49.49;100842.38;4995363;28;51860;-58
2021/07/28 03:33:07;;;;;;;;;3.25;1.75;;;;;23.95;49.54;100837.69;4995084;28;50960;-57
2021/07/28 03:35:33;;;;;;;;;2.00;2.00;;;;;23.94;49.84;100841.56;4994999;28;51210;-58
2021/07/28 03:37:58;;;;;;;;;2.00;2.00;;;;;23.93;49.23;100831.56;4995700;28;51508;-58
2021/07/28 03:40:23;;;;;;;;;2.00;2.00;;;;;23.92;49.60;100832.66;4994730;28;51160;-58
2021/07/28 03:42:49;;;;;;;;;2.50;2.00;;;;;23.90;49.06;100833.75;4995463;28;51062;-58
2021/07/28 03:45:14;;;;;;;;;1.25;1.25;;;;;23.90;49.31;100835.69;4995111;28;51126;-58
2021/07/28 03:47:40;;;;;;;;;4.50;2.50;;;;;23.88;49.42;100835.94;4994849;28;51423;-58
2021/07/28 03:50:05;;;;;;;;;2.25;2.25;;;;;23.87;49.25;100838.94;4994045;28;50964;-58
2021/07/28 03:52:31;;;;;;;;;3.25;2.00;;;;;23.86;49.17;100840.00;4994849;28;51045;-58
2021/07/28 03:54:56;;;;;;;;;2.75;2.75;;;;;23.85;49.38;100841.09;4995153;28;51187;-57
2021/07/28 03:57:21;;;;;;;;;2.00;2.00;;;;;23.83;49.16;100844.09;4994923;28;50956;-58
2021/07/28 03:59:47;;;;;;;;;1.00;1.00;;;;;23.84;49.35;100844.94;4995985;28;51207;-58
2021/07/28 04:02:13;;;;;;;;;3.25;2.75;;;;;23.83;49.09;100843.28;4998414;28;51121;-58
2021/07/28 04:04:39;;;;;;;;;3.00;2.00;;;;;23.81;49.00;100849.06;4998228;28;51293;-57
2021/07/28 04:07:05;;;;;;;;;2.00;2.00;;;;;23.80;48.55;100854.84;4999181;28;51085;-58
2021/07/28 04:09:31;;;;;;;;;1.25;1.25;;;;;23.79;49.13;100858.69;4998146;28;51745;-58
2021/07/28 04:11:56;;;;;;;;;2.00;1.00;;;;;23.78;48.43;100865.31;4998220;28;51154;-58
2021/07/28 04:14:21;;;;;;;;;1.50;1.50;;;;;23.77;48.93;100858.09;4998212;28;51491;-58
2021/07/28 04:16:46;;;;;;;;;1.50;1.50;;;;;23.76;48.70;100864.69;4998455;28;51076;-58
2021/07/28 04:19:12;;;;;;;;;4.75;3.00;;;;;23.75;48.50;100869.38;4998109;28;51033;-57
2021/07/28 04:21:37;;;;;;;;;3.25;2.00;;;;;23.74;48.72;100864.94;4998029;28;51120;-58
2021/07/28 04:24:03;;;;;;;;;2.00;2.00;;;;;23.73;48.55;100862.41;4998048;28;51179;-58
2021/07/28 04:26:28;;;;;;;;;2.00;2.00;;;;;23.71;48.56;100867.34;4998505;28;51002;-58
2021/07/28 04:28:53;;;;;;;;;3.50;2.75;;;;;23.69;48.54;100867.59;4997602;28;52454;-58
2021/07/28 04:31:19;;;;;;;;;2.25;2.25;;;;;23.68;48.68;100871.44;4998166;28;51126;-58
2021/07/28 04:33:44;;;;;;;;;4.00;2.75;;;;;23.67;48.57;100863.41;4997505;28;52105;-58
2021/07/28 04:36:09;;;;;;;;;2.75;2.00;;;;;23.67;48.25;100867.00;4998146;28;50983;-58
2021/07/28 04:38:35;;;;;;;;;1.75;1.00;;;;;23.65;48.37;100860.84;4997992;28;51161;-58
2021/07/28 04:41:01;;;;;;;;;2.00;2.00;;;;;23.65;48.33;100868.31;4997886;28;51082;-58
2021/07/28 04:43:26;;;;;;;;;2.75;2.75;;;;;23.64;48.30;100869.41;4997965;28;51190;-58
2021/07/28 04:45:59;;;;;;;;;0.75;0.75;;;;;23.64;48.36;100873.00;4997744;28;50930;-57
2021/07/28 04:48:29;;;;;;;;;4.75;2.00;;;;;23.64;47.93;100872.16;4997765;28;53519;-58
2021/07/28 04:50:56;;;;;;;;;3.25;3.25;;;;;23.63;47.95;100876.84;4996337;28;51070;-58
2021/07/28 04:53:22;;;;;;;;;2.25;2.00;;;;;23.64;47.91;100884.06;4997676;28;51150;-58
2021/07/28 04:55:58;;;;;;;;;3.50;2.75;;;;;23.61;48.07;100877.09;4997621;28;51128;-58
2021/07/28 04:58:24;;;;;;;;;1.50;1.00;;;;;23.61;48.39;100874.34;4997418;28;51078;-57
2021/07/28 05:00:50;;;;;;;;;2.50;2.00;;;;;23.61;48.21;100868.81;5006164;28;51130;-57
2021/07/28 05:03:16;;;;;;;;;2.75;2.00;;;;;23.61;48.54;100868.81;4997734;28;51039;-58
2021/07/28 05:05:42;;;;;;;;;2.25;2.25;;;;;23.61;48.06;100870.72;4997370;28;51127;-58
2021/07/28 05:08:08;;;;;;;;;2.25;2.00;;;;;23.60;48.18;100875.44;4998315;28;51801;-57
2021/07/28 05:10:33;;;;;;;;;3.75;2.00;;;;;23.60;48.50;100877.34;4996749;28;50935;-58
2021/07/28 05:12:58;;;;;;;;;2.50;2.50;;;;;23.59;48.36;100876.50;4996386;28;51118;-58
2021/07/28 05:15:24;;;;;;;;;1.00;1.00;;;;;23.60;48.07;100882.88;4998095;28;50946;-58
2021/07/28 05:17:49;;;;;;;;;1.75;1.75;;;;;23.59;48.06;100890.34;4997941;28;61297;-57
2021/07/28 05:20:16;;;;;;;;;2.25;2.25;;;;;23.58;47.77;100887.78;4996643;28;51168;-58
2021/07/28 05:22:42;;;;;;;;;2.00;2.00;;;;;23.57;48.20;100886.94;4997396;28;51140;-58
2021/07/28 05:25:08;;;;;;;;;2.25;2.25;;;;;23.57;48.15;100888.88;4997358;28;51043;-58
2021/07/28 05:27:33;;;;;;;;;2.00;2.00;;;;;23.56;48.10;100889.97;4997419;28;51961;-58
2021/07/28 05:30:00;;;;;;;;;2.25;1.00;;;;;23.56;47.88;100888.03;4996753;28;51241;-58
2021/07/28 05:32:25;;;;;;;;;3.00;2.00;;;;;23.56;48.18;100896.31;4990252;28;51701;-58
2021/07/28 05:34:50;;;;;;;;;2.00;2.00;;;;;23.56;48.06;100889.97;4996547;28;51197;-58
2021/07/28 05:37:17;;;;;;;;;2.50;2.00;;;;;23.54;48.33;100890.16;4996614;28;51165;-57
2021/07/28 05:39:42;;;;;;;;;3.25;1.50;;;;;23.54;47.88;100887.41;4995193;28;51333;-58
2021/07/28 05:42:07;;;;;;;;;3.00;2.25;;;;;23.54;48.65;100892.09;4996706;28;51223;-58
2021/07/28 05:44:33;;;;;;;;;5.25;3.25;;;;;23.54;48.12;100892.94;4997319;28;51258;-58
2021/07/28 05:46:58;;;;;;;;;2.25;2.25;;;;;23.55;48.23;100891.88;4993001;28;51105;-57
2021/07/28 05:49:24;;;;;;;;;3.75;2.25;;;;;23.56;48.97;100895.47;4994287;28;51555;-56
2021/07/28 05:51:49;;;;;;;;;1.75;1.75;;;;;23.58;48.24;100902.47;4996672;28;51257;-59
2021/07/28 05:54:14;;;;;;;;;2.25;2.25;;;;;23.59;48.79;100898.63;4996840;28;51274;-56
2021/07/28 05:56:40;;;;;;;;;3.50;2.75;;;;;23.61;49.54;100899.22;4996533;28;52036;-56
2021/07/28 05:59:05;;;;;;;;;2.50;2.00;;;;;23.63;49.46;100904.50;4995995;28;51326;-56
2021/07/28 06:01:30;;;;;;;;;4.00;3.00;;;;;23.64;49.67;100900.66;4994073;28;52305;-56
2021/07/28 06:03:55;;;;;;;;;2.00;2.00;;;;;23.66;49.70;100906.81;4993633;28;51143;-55
2021/07/28 06:06:21;;;;;;;;;2.00;2.00;;;;;23.69;50.49;100911.00;4993615;28;53088;-56
2021/07/28 06:08:46;;;;;;;;;1.50;1.50;;;;;23.71;50.35;100920.75;4994133;28;51085;-55
2021/07/28 06:11:12;;;;;;;;;2.75;2.75;;;;;23.73;49.50;100909.44;4990310;28;51167;-53
2021/07/28 06:13:37;;;;;;;;;3.00;3.00;;;;;23.74;49.43;100919.41;4997049;28;51123;-55
2021/07/28 06:16:03;;;;;;;;;2.00;2.00;;;;;23.77;49.50;100918.94;4994188;28;51973;-56
2021/07/28 06:18:28;;;;;;;;;4.00;2.00;;;;;23.77;49.79;100917.00;4996051;28;51050;-55
2021/07/28 06:20:53;;;;;;;;;2.75;2.75;;;;;23.79;49.94;100917.59;5005683;28;51263;-55
2021/07/28 06:23:21;;;;;;;;;3.75;2.25;;;;;23.81;49.81;100918.19;4998992;28;51151;-54
2021/07/28 06:25:46;;;;;;;;;2.50;1.25;;;;;23.83;49.92;100915.19;4994552;28;52242;-55
2021/07/28 06:28:12;;;;;;;;;3.00;3.00;;;;;23.84;49.20;100919.63;4993882;28;51141;-55
2021/07/28 06:30:37;;;;;;;;;3.50;2.00;;;;;23.85;49.24;100929.63;4996206;28;51161;-54
2021/07/28 06:33:03;;;;;;;;;2.75;2.75;;;;;23.87;49.33;100927.47;4995009;28;51392;-53
2021/07/28 06:35:28;;;;;;;;;3.50;2.50;;;;;23.88;49.39;100920.84;4992163;28;53902;-55
2021/07/28 06:37:54;;;;;;;;;4.25;3.00;;;;;23.88;49.54;100927.22;4994369;28;51099;-57
2021/07/28 06:40:19;;;;;;;;;3.00;2.00;;;;;23.89;49.54;100925.28;4992121;28;51074;-54
2021/07/28 06:42:44;;;;;;;;;3.50;3.50;;;;;23.92;49.50;100929.50;4995204;28;51592;-58
2021/07/28 06:45:10;;;;;;;;;4.50;4.00;;;;;23.93;49.20;100926.47;4996800;28;51871;-53
2021/07/28 06:47:35;;;;;;;;;4.00;4.00;;;;;23.94;49.22;100921.78;4993246;28;51338;-54
2021/07/28 06:50:01;;;;;;;;;2.25;2.00;;;;;23.94;49.31;100911.56;4993652;28;51458;-56
2021/07/28 06:52:26;;;;;;;;;4.75;3.00;;;;;23.95;49.43;100918.78;4991124;28;51226;-56
2021/07/28 06:54:51;;;;;;;;;2.00;2.00;;;;;23.96;49.54;100923.22;4990009;28;51810;-54
2021/07/28 06:57:17;;;;;;;;;1.00;1.00;;;;;23.96;49.26;100920.44;4995744;28;51056;-53
2021/07/28 06:59:42;;;;;;;;;2.75;2.75;;;;;23.98;49.51;100925.75;4995008;28;51007;-53
2021/07/28 07:02:07;;;;;;;;;4.25;1.25;;;;;23.99;49.43;100927.44;4994837;28;51284;-52
2021/07/28 07:04:33;;;;;;;;;1.50;1.25;;;;;24.00;48.89;100926.34;4994476;28;60948;-55
2021/07/28 07:06:58;;;;;;;;;4.00;2.00;;;;;24.01;49.09;100934.41;4993971;28;51152;-54
2021/07/28 07:09:23;;;;;;;;;4.00;3.25;;;;;24.01;48.88;100934.41;4994703;28;51179;-56
2021/07/28 07:11:49;;;;;;;;;3.00;2.00;;;;;24.02;49.08;100935.25;4993214;28;51219;-54
2021/07/28 07:14:14;;;;;;;;;3.50;1.75;;;;;24.02;49.14;100935.25;4994414;28;58956;-54
2021/07/28 07:16:39;;;;;;;;;5.50;2.50;;;;;24.02;49.21;100936.09;4993589;28;51191;-54
2021/07/28 07:19:05;;;;;;;;;2.75;2.00;;;;;24.03;49.22;100939.69;4993952;28;51063;-54
2021/07/28 07:21:30;;;;;;;;;3.00;1.75;;;;;24.05;48.81;100941.13;5004862;28;51583;-55
2021/07/28 07:23:55;;;;;;;;;3.00;3.00;;;;;24.07;48.68;100943.66;4994326;28;58330;-56
2021/07/28 07:26:21;;;;;;;;;1.25;1.25;;;;;24.06;48.84;100942.81;4994518;28;51099;-55
2021/07/28 07:28:46;;;;;;;;;3.75;3.00;;;;;24.08;48.86;100942.59;4994858;28;50968;-56
2021/07/28 07:31:12;;;;;;;;;5.00;3.00;;;;;24.08;48.78;100946.19;4993738;28;51306;-53
2021/07/28 07:33:38;;;;;;;;;5.50;3.50;;;;;24.08;48.77;100940.66;4992867;28;51757;-54
2021/07/28 07:36:05;;;;;;;;;2.25;2.25;;;;;24.07;48.81;100938.97;4993947;28;51173;-57
2021/07/28 07:38:31;;;;;;;;;3.25;3.25;;;;;24.08;48.57;100940.66;4993953;28;51210;-57
2021/07/28 07:40:56;;;;;;;;;3.00;2.00;;;;;24.08;48.33;100943.44;4996409;28;51110;-55
2021/07/28 07:43:21;;;;;;;;;4.50;4.00;;;;;24.06;48.53;100945.56;4995996;28;54177;-57
2021/07/28 07:45:47;;;;;;;;;5.00;4.00;;;;;24.06;49.17;100953.03;4985623;28;51325;-53
2021/07/28 07:48:12;;;;;;;;;3.00;3.00;;;;;24.07;49.46;100955.59;4988364;28;53236;-56
2021/07/28 07:50:37;;;;;;;;;2.25;2.25;;;;;24.07;49.75;100951.94;4990169;28;51507;-56
2021/07/28 07:53:03;;;;;;;;;2.75;2.75;;;;;24.05;49.46;100949.44;4982014;28;51193;-55
2021/07/28 07:55:30;;;;;;;;;1.75;1.75;;;;;24.08;49.48;100945.34;4990093;28;51304;-56
2021/07/28 07:57:56;;;;;;;;;3.00;3.00;;;;;24.10;49.55;100954.25;4990155;28;51249;-57
2021/07/28 08:00:22;;;;;;;;;4.00;3.75;;;;;24.10;49.04;100948.72;4987001;28;51288;-56
2021/07/28 08:02:47;;;;;;;;;2.50;2.50;;;;;24.11;49.27;100947.63;4988063;28;51115;-57
2021/07/28 08:05:13;;;;;;;;;3.00;3.00;;;;;24.11;49.19;100944.84;4983934;28;51254;-54
2021/07/28 08:07:38;;;;;;;;;4.00;4.00;;;;;24.11;49.03;100945.69;4987003;28;51157;-55
2021/07/28 08:10:04;;;;;;;;;4.25;2.25;;;;;24.14;49.12;100952.66;4992647;28;51046;-56
2021/07/28 08:12:29;;;;;;;;;5.00;3.25;;;;;24.13;48.98;100943.53;4984210;28;53198;-56
2021/07/28 08:14:54;;;;;;;;;3.50;3.50;;;;;24.14;49.06;100941.59;4989831;28;54814;-55
2021/07/28 08:17:20;;;;;;;;;3.50;3.50;;;;;24.16;48.81;100939.41;4991728;28;51545;-55
2021/07/28 08:19:45;;;;;;;;;5.00;3.25;;;;;24.18;49.02;100948.34;4992061;28;51215;-55
2021/07/28 08:22:10;;;;;;;;;3.00;3.00;;;;;24.19;48.67;100953.63;4992639;28;51229;-57
2021/07/28 08:24:36;;;;;;;;;5.25;4.25;;;;;24.20;48.36;100954.47;4990300;28;51569;-56
2021/07/28 08:27:01;;;;;;;;;4.75;4.00;;;;;24.21;48.53;100950.59;4991975;28;51142;-56
2021/07/28 08:29:26;;;;;;;;;3.25;3.25;;;;;24.24;48.39;100949.28;4988855;28;51230;-57
2021/07/28 08:31:52;;;;;;;;;3.00;3.00;;;;;24.24;47.86;100940.97;4990994;28;51767;-55
2021/07/28 08:34:17;;;;;;;;;3.50;2.50;;;;;24.25;47.74;100940.72;4991733;28;55710;-57
2021/07/28 08:36:42;;;;;;;;;2.25;2.00;;;;;24.27;47.97;100946.00;4988403;28;51232;-55
2021/07/28 08:39:09;;;;;;;;;2.25;2.00;;;;;24.30;47.91;100942.75;4992788;28;51077;-55
2021/07/28 08:41:36;;;;;;;;;5.00;3.00;;;;;24.31;47.49;100939.78;4990363;28;52842;-56
2021/07/28 08:44:02;;;;;;;;;2.50;1.75;;;;;24.34;47.54;100933.75;4988753;28;51051;-57
2021/07/28 08:46:27;;;;;;;;;3.00;2.00;;;;;24.38;47.20;100936.84;4992531;28;51171;-55
2021/07/28 08:48:54;;;;;;;;;2.50;2.50;;;;;24.38;47.02;100934.06;4994799;28;51451;-55
2021/07/28 08:51:24;;;;;;;;;4.50;3.00;;;;;24.39;46.78;100936.63;4993220;28;51365;-54
2021/07/28 08:53:49;;;;;;;;;2.50;2.00;;;;;24.42;46.56;100932.53;4995296;28;51424;-54
2021/07/28 08:56:15;;;;;;;;;2.00;1.50;;;;;24.43;46.32;100945.28;4989919;28;51094;-53
2021/07/28 08:58:41;;;;;;;;;3.00;2.00;;;;;24.44;46.19;100936.72;4988438;28;53805;-56
2021/07/28 09:01:07;;;;;;;;;2.75;2.75;;;;;24.45;45.70;100941.16;4992414;28;50956;-55
2021/07/28 09:03:32;;;;;;;;;1.50;1.00;;;;;24.47;46.05;100943.69;4993062;28;51453;-55
2021/07/28 09:06:01;;;;;;;;;1.50;1.50;;;;;24.47;45.60;100944.53;4993845;28;51667;-56
2021/07/28 09:08:31;;;;;;;;;1.00;1.00;;;;;24.49;45.67;100958.16;4993578;28;51344;-56
2021/07/28 09:11:07;;;;;;;;;3.00;3.00;;;;;24.48;45.18;100951.75;4994157;28;52151;-56
2021/07/28 09:13:41;;;;;;;;;4.25;2.50;;;;;24.49;45.40;100941.53;4991143;28;51662;-56
2021/07/28 09:16:17;;;;;;;;;3.00;1.75;;;;;24.50;45.38;100947.91;4995217;28;51088;-54
2021/07/28 09:18:45;;;;;;;;;2.75;2.25;;;;;24.49;45.54;100941.53;4988023;28;51487;-56
2021/07/28 09:21:19;;;;;;;;;2.50;2.50;;;;;24.49;45.07;100936.00;4988754;28;51241;-55
2021/07/28 09:23:46;;;;;;;;;2.50;1.75;;;;;24.49;45.30;100941.53;4990842;28;51213;-55
2021/07/28 09:26:47;;;;;;;;;6.50;2.00;;;;;24.50;45.30;100940.44;4985370;28;51502;-55
2021/07/28 09:29:20;;;;;;;;;2.25;2.25;;;;;24.50;45.14;100940.44;4991127;28;51136;-55
2021/07/28 09:31:53;;;;;;;;;3.25;3.25;;;;;24.51;45.33;100946.81;4986919;28;51498;-54
2021/07/28 09:34:22;;;;;;;;;1.00;1.00;;;;;24.50;45.54;100940.44;4991190;28;51302;-56
2021/07/28 09:36:48;;;;;;;;;4.25;3.00;;;;;24.52;45.57;100941.03;4991467;28;51259;-55
2021/07/28 09:39:22;;;;;;;;;2.50;1.00;;;;;24.54;45.08;100949.09;4991499;28;51374;-52
2021/07/28 09:41:47;;;;;;;;;4.25;4.25;;;;;24.52;45.23;100949.34;4992450;28;52085;-56
2021/07/28 09:44:26;;;;;;;;;3.00;2.00;;;;;24.51;44.96;100944.03;4994278;28;51083;-55
2021/07/28 09:47:07;;;;;;;;;1.25;1.25;;;;;24.50;45.13;100943.22;4991269;28;51483;-56
2021/07/28 09:49:33;;;;;;;;;4.25;2.00;;;;;24.49;45.16;100949.84;4990148;28;51545;-56
2021/07/28 09:51:59;;;;;;;;;4.25;4.25;;;;;24.48;45.23;100948.13;4988979;28;51978;-58
2021/07/28 09:54:31;;;;;;;;;6.25;3.00;;;;;24.48;45.37;100948.13;4986706;28;51169;-58
2021/07/28 09:56:58;;;;;;;;;3.50;2.25;;;;;24.48;45.43;100948.13;4985462;28;51020;-58
2021/07/28 09:59:24;;;;;;;;;4.75;2.00;;;;;24.48;45.52;100951.75;4987721;28;51324;-55
2021/07/28 10:01:52;;;;;;;;;2.00;2.00;;;;;24.49;45.44;100955.38;4988297;28;52086;-57
2021/07/28 10:04:19;;;;;;;;;4.00;2.25;;;;;24.49;45.50;100955.38;4990064;28;51359;-57
2021/07/28 10:06:46;;;;;;;;;4.00;2.00;;;;;24.51;45.77;100952.34;4991546;28;51280;-57
2021/07/28 10:09:17;;;;;;;;;2.00;2.00;;;;;24.52;45.38;100951.25;4988050;28;51269;-55
2021/07/28 10:11:46;;;;;;;;;2.00;2.00;;;;;24.52;45.32;100951.25;4987859;28;51354;-55
2021/07/28 10:14:15;;;;;;;;;2.00;2.00;;;;;24.52;45.35;100951.25;4989412;28;51269;-58
2021/07/28 10:16:40;;;;;;;;;3.00;3.00;;;;;24.52;45.16;100960.41;4992373;28;51566;-57
2021/07/28 10:19:06;;;;;;;;;2.75;2.00;;;;;24.53;45.24;100945.47;4986832;28;51965;-56
2021/07/28 10:21:33;;;;;;;;;4.25;4.25;;;;;24.55;45.30;100945.22;4988123;28;50943;-56
2021/07/28 10:23:59;;;;;;;;;5.00;3.00;;;;;24.56;45.36;100946.91;4988914;28;51469;-56
2021/07/28 10:26:25;;;;;;;;;1.25;1.25;;;;;24.57;45.32;100945.81;4989981;28;51475;-57
2021/07/28 10:28:51;;;;;;;;;5.75;3.50;;;;;24.57;44.75;100949.41;4991618;28;51334;-55
2021/07/28 10:31:18;;;;;;;;;4.25;3.50;;;;;24.56;44.49;100956.06;4988348;28;51872;-55
2021/07/28 10:33:45;;;;;;;;;5.75;5.00;;;;;24.56;44.71;100953.28;4985373;28;51261;-56
2021/07/28 10:36:10;;;;;;;;;1.50;1.50;;;;;24.58;44.67;100945.56;4985848;28;51235;-54
2021/07/28 10:38:50;;;;;;;;;3.50;3.50;;;;;24.58;44.75;100944.72;4990950;28;51344;-54
2021/07/28 10:41:43;;;;;;;;;3.00;3.00;;;;;24.58;44.80;100941.94;4990110;28;51961;-56
2021/07/28 10:44:16;;;;;;;;;4.00;3.00;;;;;24.59;44.77;100947.25;4983737;28;51183;-54
2021/07/28 10:46:56;;;;;;;;;3.00;2.75;;;;;24.60;44.45;100939.81;4990853;28;51122;-51
2021/07/28 10:49:36;;;;;;;;;2.50;2.00;;;;;24.60;44.41;100943.41;4992422;28;51987;-54
2021/07/28 10:52:03;;;;;;;;;2.00;2.00;;;;;24.60;44.23;100940.63;4987646;28;51834;-55
2021/07/28 10:54:47;;;;;;;;;5.00;5.00;;;;;24.62;44.51;100941.22;4989063;28;51584;-52
2021/07/28 10:57:33;;;;;;;;;2.00;2.00;;;;;24.63;44.08;100942.91;4992862;28;51162;-55
2021/07/28 10:59:59;;;;;;;;;2.00;2.00;;;;;24.63;44.41;100936.53;4974440;28;51254;-54
2021/07/28 11:02:44;;;;;;;;;4.25;3.00;;;;;24.64;44.63;100943.75;4986669;28;51338;-50
2021/07/28 11:05:22;;;;;;;;;3.75;3.75;;;;;24.64;43.77;100938.19;4989269;28;51495;-57
2021/07/28 11:08:04;;;;;;;;;4.00;2.50;;;;;24.64;43.94;100944.59;4983414;28;51493;-55
2021/07/28 11:10:34;;;;;;;;;3.00;3.00;;;;;24.65;43.88;100940.72;4987379;28;51055;-55
2021/07/28 11:13:05;;;;;;;;;2.75;2.50;;;;;24.66;43.85;100934.09;4989460;28;52452;-55
2021/07/28 11:15:30;;;;;;;;;6.75;2.25;;;;;24.67;43.88;100932.16;4992551;28;51260;-55
2021/07/28 11:17:57;;;;;;;;;2.50;2.50;;;;;24.68;44.03;100942.16;4993316;28;51100;-55
2021/07/28 11:20:30;;;;;;;;;5.75;4.50;;;;;24.69;44.04;100939.13;4988294;28;50988;-54
2021/07/28 11:23:20;;;;;;;;;6.00;4.00;;;;;24.71;43.87;100939.75;4991157;28;51181;-56
2021/07/28 11:25:47;;;;;;;;;3.50;3.00;;;;;24.72;44.18;100930.34;4989262;28;51423;-54